sensor_id;sensor_type;location;lat;lon;timestamp;P1;durP1;ratioP1;P2;durP2;ratioP2
27696;SDS011;15105;56.514;21.002;2022-07-29T00:00:16;1.67;;;0.80;;
27696;SDS011;15105;56.514;21.002;2022-07-29T00:02:43;5.00;;;1.13;;
27696;SDS011;15105;56.514;21.002;2022-07-29T00:05:10;5.60;;;0.73;;
27696;SDS011;15105;56.514;21.002;2022-07-29T00:07:57;0.95;;;0.70;;
27696;SDS011;15105;56.514;21.002;2022-07-29T00:10:24;6.47;;;0.65;;
27696;SDS011;15105;56.514;21.002;2022-07-29T00:12:51;5.53;;;0.50;;
27696;SDS011;15105;56.514;21.002;2022-07-29T00:15:18;3.13;;;0.80;;
27696;SDS011;15105;56.514;21.002;2022-07-29T00:17:45;4.22;;;0.77;;
27696;SDS011;15105;56.514;21.002;2022-07-29T00:20:18;2.38;;;0.85;;
27696;SDS011;15105;56.514;21.002;2022-07-29T00:22:45;9.20;;;1.00;;
27696;SDS011;15105;56.514;21.002;2022-07-29T00:25:12;6.65;;;1.27;;
27696;SDS011;15105;56.514;21.002;2022-07-29T00:27:39;5.93;;;2.13;;
27696;SDS011;15105;56.514;21.002;2022-07-29T00:30:07;3.67;;;1.75;;
27696;SDS011;15105;56.514;21.002;2022-07-29T00:32:34;7.05;;;2.33;;
27696;SDS011;15105;56.514;21.002;2022-07-29T00:35:01;6.80;;;2.20;;
27696;SDS011;15105;56.514;21.002;2022-07-29T00:37:47;5.88;;;2.80;;
27696;SDS011;15105;56.514;21.002;2022-07-29T00:40:14;7.35;;;2.33;;
27696;SDS011;15105;56.514;21.002;2022-07-29T00:42:45;4.85;;;2.72;;
27696;SDS011;15105;56.514;21.002;2022-07-29T00:45:17;3.85;;;2.42;;
27696;SDS011;15105;56.514;21.002;2022-07-29T00:47:44;3.88;;;2.60;;
27696;SDS011;15105;56.514;21.002;2022-07-29T00:50:12;8.18;;;3.00;;
27696;SDS011;15105;56.514;21.002;2022-07-29T00:52:41;4.95;;;2.60;;
27696;SDS011;15105;56.514;21.002;2022-07-29T00:55:10;6.88;;;2.42;;
27696;SDS011;15105;56.514;21.002;2022-07-29T00:57:58;4.07;;;2.03;;
27696;SDS011;15105;56.514;21.002;2022-07-29T01:00:25;4.82;;;2.08;;
27696;SDS011;15105;56.514;21.002;2022-07-29T01:02:54;3.15;;;1.73;;
27696;SDS011;15105;56.514;21.002;2022-07-29T01:05:21;4.65;;;2.17;;
27696;SDS011;15105;56.514;21.002;2022-07-29T01:08:11;3.85;;;1.95;;
27696;SDS011;15105;56.514;21.002;2022-07-29T01:10:40;4.35;;;2.03;;
27696;SDS011;15105;56.514;21.002;2022-07-29T01:13:10;6.75;;;2.30;;
27696;SDS011;15105;56.514;21.002;2022-07-29T01:15:40;3.92;;;1.90;;
27696;SDS011;15105;56.514;21.002;2022-07-29T01:23:58;5.53;;;2.28;;
27696;SDS011;15105;56.514;21.002;2022-07-29T01:32:11;7.28;;;2.55;;
27696;SDS011;15105;56.514;21.002;2022-07-29T01:35:19;4.03;;;2.40;;
27696;SDS011;15105;56.514;21.002;2022-07-29T01:37:57;4.43;;;2.78;;
27696;SDS011;15105;56.514;21.002;2022-07-29T01:43:10;5.00;;;2.53;;
27696;SDS011;15105;56.514;21.002;2022-07-29T01:45:41;4.22;;;2.85;;
27696;SDS011;15105;56.514;21.002;2022-07-29T01:48:20;6.63;;;3.88;;
27696;SDS011;15105;56.514;21.002;2022-07-29T01:50:50;6.55;;;3.95;;
27696;SDS011;15105;56.514;21.002;2022-07-29T01:53:29;9.23;;;3.70;;
27696;SDS011;15105;56.514;21.002;2022-07-29T01:56:03;7.80;;;3.72;;
27696;SDS011;15105;56.514;21.002;2022-07-29T01:58:32;5.18;;;3.60;;
27696;SDS011;15105;56.514;21.002;2022-07-29T02:01:02;6.05;;;3.42;;
27696;SDS011;15105;56.514;21.002;2022-07-29T02:03:31;7.63;;;4.00;;
27696;SDS011;15105;56.514;21.002;2022-07-29T02:06:02;8.52;;;3.95;;
27696;SDS011;15105;56.514;21.002;2022-07-29T02:08:30;7.80;;;3.60;;
27696;SDS011;15105;56.514;21.002;2022-07-29T02:11:00;5.60;;;3.53;;
27696;SDS011;15105;56.514;21.002;2022-07-29T02:13:29;6.45;;;3.28;;
27696;SDS011;15105;56.514;21.002;2022-07-29T02:15:59;6.03;;;3.10;;
27696;SDS011;15105;56.514;21.002;2022-07-29T02:18:29;5.00;;;3.22;;
27696;SDS011;15105;56.514;21.002;2022-07-29T02:20:58;8.00;;;3.20;;
27696;SDS011;15105;56.514;21.002;2022-07-29T02:23:27;7.05;;;3.13;;
27696;SDS011;15105;56.514;21.002;2022-07-29T02:25:57;7.90;;;3.40;;
27696;SDS011;15105;56.514;21.002;2022-07-29T02:28:26;8.10;;;4.10;;
27696;SDS011;15105;56.514;21.002;2022-07-29T02:30:56;6.70;;;3.80;;
27696;SDS011;15105;56.514;21.002;2022-07-29T02:33:26;8.55;;;3.80;;
27696;SDS011;15105;56.514;21.002;2022-07-29T02:35:54;9.73;;;4.28;;
27696;SDS011;15105;56.514;21.002;2022-07-29T02:38:22;10.43;;;4.47;;
27696;SDS011;15105;56.514;21.002;2022-07-29T02:41:11;9.85;;;4.50;;
27696;SDS011;15105;56.514;21.002;2022-07-29T02:44:02;7.90;;;4.28;;
27696;SDS011;15105;56.514;21.002;2022-07-29T02:46:33;7.72;;;4.65;;
27696;SDS011;15105;56.514;21.002;2022-07-29T02:49:09;9.07;;;4.47;;
27696;SDS011;15105;56.514;21.002;2022-07-29T02:51:46;8.65;;;4.70;;
27696;SDS011;15105;56.514;21.002;2022-07-29T02:54:20;9.95;;;4.32;;
27696;SDS011;15105;56.514;21.002;2022-07-29T02:56:50;8.32;;;4.55;;
27696;SDS011;15105;56.514;21.002;2022-07-29T02:59:22;8.27;;;4.53;;
27696;SDS011;15105;56.514;21.002;2022-07-29T03:01:53;9.55;;;3.45;;
27696;SDS011;15105;56.514;21.002;2022-07-29T03:04:22;7.65;;;3.72;;
27696;SDS011;15105;56.514;21.002;2022-07-29T03:06:52;8.10;;;3.83;;
27696;SDS011;15105;56.514;21.002;2022-07-29T03:09:20;7.05;;;3.65;;
27696;SDS011;15105;56.514;21.002;2022-07-29T03:11:49;7.72;;;3.28;;
27696;SDS011;15105;56.514;21.002;2022-07-29T03:14:19;7.32;;;3.10;;
27696;SDS011;15105;56.514;21.002;2022-07-29T03:16:47;5.25;;;3.30;;
27696;SDS011;15105;56.514;21.002;2022-07-29T03:19:16;6.47;;;2.97;;
27696;SDS011;15105;56.514;21.002;2022-07-29T03:21:43;5.13;;;3.08;;
27696;SDS011;15105;56.514;21.002;2022-07-29T03:24:23;8.10;;;3.05;;
27696;SDS011;15105;56.514;21.002;2022-07-29T03:26:58;5.75;;;2.42;;
27696;SDS011;15105;56.514;21.002;2022-07-29T03:29:26;4.13;;;2.40;;
27696;SDS011;15105;56.514;21.002;2022-07-29T03:31:59;3.42;;;2.72;;
27696;SDS011;15105;56.514;21.002;2022-07-29T03:34:32;5.65;;;2.63;;
27696;SDS011;15105;56.514;21.002;2022-07-29T03:36:59;3.50;;;2.50;;
27696;SDS011;15105;56.514;21.002;2022-07-29T03:39:27;5.53;;;2.58;;
27696;SDS011;15105;56.514;21.002;2022-07-29T03:41:57;4.93;;;2.22;;
27696;SDS011;15105;56.514;21.002;2022-07-29T03:44:27;5.22;;;2.10;;
27696;SDS011;15105;56.514;21.002;2022-07-29T03:46:55;3.92;;;2.17;;
27696;SDS011;15105;56.514;21.002;2022-07-29T03:49:27;3.15;;;2.53;;
27696;SDS011;15105;56.514;21.002;2022-07-29T03:51:56;3.53;;;2.30;;
27696;SDS011;15105;56.514;21.002;2022-07-29T03:54:23;4.03;;;1.88;;
27696;SDS011;15105;56.514;21.002;2022-07-29T03:56:50;2.67;;;1.90;;
27696;SDS011;15105;56.514;21.002;2022-07-29T03:59:19;2.70;;;2.00;;
27696;SDS011;15105;56.514;21.002;2022-07-29T04:01:47;4.30;;;2.30;;
27696;SDS011;15105;56.514;21.002;2022-07-29T04:04:16;9.90;;;2.40;;
27696;SDS011;15105;56.514;21.002;2022-07-29T04:06:44;3.47;;;2.05;;
27696;SDS011;15105;56.514;21.002;2022-07-29T04:09:16;6.60;;;1.80;;
27696;SDS011;15105;56.514;21.002;2022-07-29T04:11:43;4.80;;;1.77;;
27696;SDS011;15105;56.514;21.002;2022-07-29T04:14:28;2.10;;;1.23;;
27696;SDS011;15105;56.514;21.002;2022-07-29T04:16:56;1.55;;;1.00;;
27696;SDS011;15105;56.514;21.002;2022-07-29T04:19:24;1.95;;;1.00;;
27696;SDS011;15105;56.514;21.002;2022-07-29T04:21:51;1.98;;;1.25;;
27696;SDS011;15105;56.514;21.002;2022-07-29T04:24:18;2.10;;;1.20;;
27696;SDS011;15105;56.514;21.002;2022-07-29T04:26:46;4.28;;;1.10;;
27696;SDS011;15105;56.514;21.002;2022-07-29T04:29:13;1.80;;;1.20;;
27696;SDS011;15105;56.514;21.002;2022-07-29T04:31:41;3.72;;;1.38;;
27696;SDS011;15105;56.514;21.002;2022-07-29T04:34:08;4.45;;;1.60;;
27696;SDS011;15105;56.514;21.002;2022-07-29T04:36:36;2.28;;;1.20;;
27696;SDS011;15105;56.514;21.002;2022-07-29T04:39:03;5.80;;;1.20;;
27696;SDS011;15105;56.514;21.002;2022-07-29T04:41:30;3.22;;;1.50;;
27696;SDS011;15105;56.514;21.002;2022-07-29T04:43:59;5.95;;;1.23;;
27696;SDS011;15105;56.514;21.002;2022-07-29T04:46:32;8.27;;;1.20;;
27696;SDS011;15105;56.514;21.002;2022-07-29T04:49:00;2.03;;;1.48;;
27696;SDS011;15105;56.514;21.002;2022-07-29T04:51:27;6.63;;;1.55;;
27696;SDS011;15105;56.514;21.002;2022-07-29T04:53:54;4.53;;;1.40;;
27696;SDS011;15105;56.514;21.002;2022-07-29T04:56:21;2.08;;;1.00;;
27696;SDS011;15105;56.514;21.002;2022-07-29T04:58:48;4.25;;;1.17;;
27696;SDS011;15105;56.514;21.002;2022-07-29T05:01:16;1.42;;;0.50;;
27696;SDS011;15105;56.514;21.002;2022-07-29T05:03:43;1.02;;;0.55;;
27696;SDS011;15105;56.514;21.002;2022-07-29T05:06:15;6.80;;;0.63;;
27696;SDS011;15105;56.514;21.002;2022-07-29T05:08:42;1.77;;;0.60;;
27696;SDS011;15105;56.514;21.002;2022-07-29T05:11:09;4.07;;;0.73;;
27696;SDS011;15105;56.514;21.002;2022-07-29T05:13:47;2.40;;;0.70;;
27696;SDS011;15105;56.514;21.002;2022-07-29T05:16:14;2.80;;;0.75;;
27696;SDS011;15105;56.514;21.002;2022-07-29T05:18:42;2.38;;;0.60;;
27696;SDS011;15105;56.514;21.002;2022-07-29T05:21:09;3.40;;;0.70;;
27696;SDS011;15105;56.514;21.002;2022-07-29T05:23:36;1.70;;;0.70;;
27696;SDS011;15105;56.514;21.002;2022-07-29T05:26:03;1.13;;;0.70;;
27696;SDS011;15105;56.514;21.002;2022-07-29T05:28:34;3.25;;;0.93;;
27696;SDS011;15105;56.514;21.002;2022-07-29T05:31:04;2.42;;;1.00;;
27696;SDS011;15105;56.514;21.002;2022-07-29T05:33:31;1.98;;;0.70;;
27696;SDS011;15105;56.514;21.002;2022-07-29T05:36:05;1.23;;;0.80;;
27696;SDS011;15105;56.514;21.002;2022-07-29T05:38:34;2.50;;;0.95;;
27696;SDS011;15105;56.514;21.002;2022-07-29T05:41:02;3.05;;;0.95;;
27696;SDS011;15105;56.514;21.002;2022-07-29T05:43:29;3.35;;;0.47;;
27696;SDS011;15105;56.514;21.002;2022-07-29T05:45:59;6.65;;;0.57;;
27696;SDS011;15105;56.514;21.002;2022-07-29T05:48:27;1.40;;;0.38;;
27696;SDS011;15105;56.514;21.002;2022-07-29T05:50:55;11.25;;;1.75;;
27696;SDS011;15105;56.514;21.002;2022-07-29T05:53:28;4.50;;;1.40;;
27696;SDS011;15105;56.514;21.002;2022-07-29T05:55:55;1.65;;;0.50;;
27696;SDS011;15105;56.514;21.002;2022-07-29T05:58:22;0.60;;;0.40;;
27696;SDS011;15105;56.514;21.002;2022-07-29T06:00:49;1.52;;;0.50;;
27696;SDS011;15105;56.514;21.002;2022-07-29T06:03:16;3.30;;;0.77;;
27696;SDS011;15105;56.514;21.002;2022-07-29T06:05:43;5.97;;;0.60;;
27696;SDS011;15105;56.514;21.002;2022-07-29T06:08:10;1.05;;;0.50;;
27696;SDS011;15105;56.514;21.002;2022-07-29T06:10:51;2.55;;;0.25;;
27696;SDS011;15105;56.514;21.002;2022-07-29T06:13:18;4.10;;;0.68;;
27696;SDS011;15105;56.514;21.002;2022-07-29T06:15:45;3.28;;;0.52;;
27696;SDS011;15105;56.514;21.002;2022-07-29T06:18:17;4.85;;;0.50;;
27696;SDS011;15105;56.514;21.002;2022-07-29T06:20:45;5.20;;;0.60;;
27696;SDS011;15105;56.514;21.002;2022-07-29T06:23:16;1.75;;;0.68;;
27696;SDS011;15105;56.514;21.002;2022-07-29T06:25:44;3.72;;;0.55;;
27696;SDS011;15105;56.514;21.002;2022-07-29T06:28:11;1.75;;;0.40;;
27696;SDS011;15105;56.514;21.002;2022-07-29T06:30:59;6.05;;;0.55;;
27696;SDS011;15105;56.514;21.002;2022-07-29T06:33:26;0.95;;;0.40;;
27696;SDS011;15105;56.514;21.002;2022-07-29T06:35:53;3.42;;;0.68;;
27696;SDS011;15105;56.514;21.002;2022-07-29T06:38:21;3.65;;;0.60;;
27696;SDS011;15105;56.514;21.002;2022-07-29T06:40:57;1.88;;;0.55;;
27696;SDS011;15105;56.514;21.002;2022-07-29T06:43:29;4.30;;;0.68;;
27696;SDS011;15105;56.514;21.002;2022-07-29T06:46:17;3.60;;;0.40;;
27696;SDS011;15105;56.514;21.002;2022-07-29T06:48:48;4.55;;;0.55;;
27696;SDS011;15105;56.514;21.002;2022-07-29T06:51:16;1.05;;;0.52;;
27696;SDS011;15105;56.514;21.002;2022-07-29T06:53:48;2.92;;;0.43;;
27696;SDS011;15105;56.514;21.002;2022-07-29T06:56:28;3.05;;;0.77;;
27696;SDS011;15105;56.514;21.002;2022-07-29T06:58:57;1.35;;;0.57;;
27696;SDS011;15105;56.514;21.002;2022-07-29T07:01:24;1.08;;;0.40;;
27696;SDS011;15105;56.514;21.002;2022-07-29T07:03:51;4.40;;;0.73;;
27696;SDS011;15105;56.514;21.002;2022-07-29T07:06:18;1.83;;;0.40;;
27696;SDS011;15105;56.514;21.002;2022-07-29T07:08:45;1.10;;;0.40;;
27696;SDS011;15105;56.514;21.002;2022-07-29T07:11:12;1.25;;;0.50;;
27696;SDS011;15105;56.514;21.002;2022-07-29T07:13:39;3.28;;;0.50;;
27696;SDS011;15105;56.514;21.002;2022-07-29T07:16:07;5.80;;;0.60;;
27696;SDS011;15105;56.514;21.002;2022-07-29T07:18:34;2.58;;;0.60;;
27696;SDS011;15105;56.514;21.002;2022-07-29T07:21:01;5.55;;;0.70;;
27696;SDS011;15105;56.514;21.002;2022-07-29T07:23:28;5.05;;;0.47;;
27696;SDS011;15105;56.514;21.002;2022-07-29T07:25:55;1.17;;;0.40;;
27696;SDS011;15105;56.514;21.002;2022-07-29T07:28:22;3.70;;;0.50;;
27696;SDS011;15105;56.514;21.002;2022-07-29T07:30:50;0.68;;;0.40;;
27696;SDS011;15105;56.514;21.002;2022-07-29T07:33:18;9.80;;;0.60;;
27696;SDS011;15105;56.514;21.002;2022-07-29T07:35:45;1.98;;;0.50;;
27696;SDS011;15105;56.514;21.002;2022-07-29T07:38:19;0.85;;;0.50;;
27696;SDS011;15105;56.514;21.002;2022-07-29T07:40:47;1.83;;;0.50;;
27696;SDS011;15105;56.514;21.002;2022-07-29T07:43:14;3.40;;;0.75;;
27696;SDS011;15105;56.514;21.002;2022-07-29T07:45:41;2.88;;;0.52;;
27696;SDS011;15105;56.514;21.002;2022-07-29T07:48:08;4.75;;;0.60;;
27696;SDS011;15105;56.514;21.002;2022-07-29T07:50:36;10.23;;;0.85;;
27696;SDS011;15105;56.514;21.002;2022-07-29T07:53:04;6.97;;;0.95;;
27696;SDS011;15105;56.514;21.002;2022-07-29T07:55:31;8.93;;;1.10;;
27696;SDS011;15105;56.514;21.002;2022-07-29T07:58:18;5.75;;;0.40;;
27696;SDS011;15105;56.514;21.002;2022-07-29T08:00:50;1.00;;;0.60;;
27696;SDS011;15105;56.514;21.002;2022-07-29T08:03:18;9.65;;;0.55;;
27696;SDS011;15105;56.514;21.002;2022-07-29T08:06:22;1.88;;;0.50;;
27696;SDS011;15105;56.514;21.002;2022-07-29T08:08:51;3.63;;;0.55;;
27696;SDS011;15105;56.514;21.002;2022-07-29T08:11:21;0.80;;;0.50;;
27696;SDS011;15105;56.514;21.002;2022-07-29T08:13:48;4.40;;;0.70;;
27696;SDS011;15105;56.514;21.002;2022-07-29T08:16:15;5.65;;;0.90;;
27696;SDS011;15105;56.514;21.002;2022-07-29T08:18:43;1.60;;;0.57;;
27696;SDS011;15105;56.514;21.002;2022-07-29T08:21:11;2.17;;;0.50;;
27696;SDS011;15105;56.514;21.002;2022-07-29T08:23:52;2.88;;;0.40;;
27696;SDS011;15105;56.514;21.002;2022-07-29T08:26:27;0.75;;;0.55;;
27696;SDS011;15105;56.514;21.002;2022-07-29T08:28:54;2.97;;;0.70;;
27696;SDS011;15105;56.514;21.002;2022-07-29T08:31:20;6.07;;;0.80;;
27696;SDS011;15105;56.514;21.002;2022-07-29T08:33:48;2.40;;;0.60;;
27696;SDS011;15105;56.514;21.002;2022-07-29T08:36:15;2.78;;;0.52;;
27696;SDS011;15105;56.514;21.002;2022-07-29T08:41:38;6.30;;;0.50;;
27696;SDS011;15105;56.514;21.002;2022-07-29T08:44:05;14.00;;;0.98;;
27696;SDS011;15105;56.514;21.002;2022-07-29T08:46:32;10.27;;;0.93;;
27696;SDS011;15105;56.514;21.002;2022-07-29T08:49:01;2.03;;;0.50;;
27696;SDS011;15105;56.514;21.002;2022-07-29T08:51:28;4.78;;;0.47;;
27696;SDS011;15105;56.514;21.002;2022-07-29T08:53:57;2.38;;;0.40;;
27696;SDS011;15105;56.514;21.002;2022-07-29T08:56:24;3.85;;;0.70;;
27696;SDS011;15105;56.514;21.002;2022-07-29T08:58:51;4.82;;;0.70;;
27696;SDS011;15105;56.514;21.002;2022-07-29T09:01:23;6.82;;;0.63;;
27696;SDS011;15105;56.514;21.002;2022-07-29T09:04:10;14.73;;;0.85;;
27696;SDS011;15105;56.514;21.002;2022-07-29T09:06:43;3.90;;;0.60;;
27696;SDS011;15105;56.514;21.002;2022-07-29T09:09:12;1.65;;;0.40;;
27696;SDS011;15105;56.514;21.002;2022-07-29T09:11:40;1.63;;;0.70;;
27696;SDS011;15105;56.514;21.002;2022-07-29T09:14:10;2.75;;;0.85;;
27696;SDS011;15105;56.514;21.002;2022-07-29T09:19:36;7.85;;;0.80;;
27696;SDS011;15105;56.514;21.002;2022-07-29T09:22:10;11.57;;;0.65;;
27696;SDS011;15105;56.514;21.002;2022-07-29T09:24:44;1.17;;;0.50;;
27696;SDS011;15105;56.514;21.002;2022-07-29T09:29:55;4.18;;;0.50;;
27696;SDS011;15105;56.514;21.002;2022-07-29T09:32:26;9.27;;;0.80;;
27696;SDS011;15105;56.514;21.002;2022-07-29T09:37:45;3.80;;;0.32;;
27696;SDS011;15105;56.514;21.002;2022-07-29T09:40:17;7.13;;;0.70;;
27696;SDS011;15105;56.514;21.002;2022-07-29T09:42:46;1.88;;;0.30;;
27696;SDS011;15105;56.514;21.002;2022-07-29T09:45:38;1.73;;;0.47;;
27696;SDS011;15105;56.514;21.002;2022-07-29T09:48:24;0.50;;;0.40;;
27696;SDS011;15105;56.514;21.002;2022-07-29T09:50:49;1.67;;;0.47;;
27696;SDS011;15105;56.514;21.002;2022-07-29T09:53:32;3.95;;;0.45;;
27696;SDS011;15105;56.514;21.002;2022-07-29T09:56:04;2.30;;;0.52;;
27696;SDS011;15105;56.514;21.002;2022-07-29T09:58:31;0.40;;;0.30;;
27696;SDS011;15105;56.514;21.002;2022-07-29T10:01:06;0.73;;;0.40;;
27696;SDS011;15105;56.514;21.002;2022-07-29T10:03:51;1.42;;;0.45;;
27696;SDS011;15105;56.514;21.002;2022-07-29T10:06:19;6.47;;;0.50;;
27696;SDS011;15105;56.514;21.002;2022-07-29T10:08:46;1.35;;;0.40;;
27696;SDS011;15105;56.514;21.002;2022-07-29T10:11:19;0.30;;;0.30;;
27696;SDS011;15105;56.514;21.002;2022-07-29T10:13:46;2.55;;;0.40;;
27696;SDS011;15105;56.514;21.002;2022-07-29T10:19:14;0.43;;;0.32;;
27696;SDS011;15105;56.514;21.002;2022-07-29T10:21:41;2.10;;;0.30;;
27696;SDS011;15105;56.514;21.002;2022-07-29T10:24:11;2.65;;;0.43;;
27696;SDS011;15105;56.514;21.002;2022-07-29T10:26:40;4.78;;;0.30;;
27696;SDS011;15105;56.514;21.002;2022-07-29T10:29:07;2.63;;;1.00;;
27696;SDS011;15105;56.514;21.002;2022-07-29T10:31:48;1.75;;;0.47;;
27696;SDS011;15105;56.514;21.002;2022-07-29T10:40:09;1.52;;;0.40;;
27696;SDS011;15105;56.514;21.002;2022-07-29T10:43:24;2.45;;;0.63;;
27696;SDS011;15105;56.514;21.002;2022-07-29T10:45:58;2.50;;;0.73;;
27696;SDS011;15105;56.514;21.002;2022-07-29T10:48:27;1.02;;;0.40;;
27696;SDS011;15105;56.514;21.002;2022-07-29T10:50:55;0.90;;;0.40;;
27696;SDS011;15105;56.514;21.002;2022-07-29T10:56:34;3.17;;;0.43;;
27696;SDS011;15105;56.514;21.002;2022-07-29T11:01:48;3.65;;;0.70;;
27696;SDS011;15105;56.514;21.002;2022-07-29T11:07:15;1.48;;;0.43;;
27696;SDS011;15105;56.514;21.002;2022-07-29T11:09:42;0.73;;;0.40;;
27696;SDS011;15105;56.514;21.002;2022-07-29T11:12:54;0.82;;;0.40;;
27696;SDS011;15105;56.514;21.002;2022-07-29T11:15:02;5.43;;;0.55;;
27696;SDS011;15105;56.514;21.002;2022-07-29T11:26:16;0.30;;;0.30;;
27696;SDS011;15105;56.514;21.002;2022-07-29T11:45:00;1.30;;;0.43;;
27696;SDS011;15105;56.514;21.002;2022-07-29T11:47:53;6.75;;;0.57;;
27696;SDS011;15105;56.514;21.002;2022-07-29T11:50:46;2.10;;;0.50;;
27696;SDS011;15105;56.514;21.002;2022-07-29T11:53:14;4.05;;;0.60;;
27696;SDS011;15105;56.514;21.002;2022-07-29T11:55:41;5.07;;;0.30;;
27696;SDS011;15105;56.514;21.002;2022-07-29T12:00:45;2.97;;;1.02;;
27696;SDS011;15105;56.514;21.002;2022-07-29T12:03:23;1.55;;;0.47;;
27696;SDS011;15105;56.514;21.002;2022-07-29T12:08:29;1.65;;;0.50;;
27696;SDS011;15105;56.514;21.002;2022-07-29T12:10:56;2.22;;;0.60;;
27696;SDS011;15105;56.514;21.002;2022-07-29T12:13:30;1.77;;;0.40;;
27696;SDS011;15105;56.514;21.002;2022-07-29T12:16:06;2.58;;;0.30;;
27696;SDS011;15105;56.514;21.002;2022-07-29T12:21:08;4.65;;;0.50;;
27696;SDS011;15105;56.514;21.002;2022-07-29T12:23:37;6.20;;;0.52;;
27696;SDS011;15105;56.514;21.002;2022-07-29T12:26:05;3.20;;;0.50;;
27696;SDS011;15105;56.514;21.002;2022-07-29T12:28:36;2.42;;;0.40;;
27696;SDS011;15105;56.514;21.002;2022-07-29T12:31:05;1.55;;;0.38;;
27696;SDS011;15105;56.514;21.002;2022-07-29T12:33:33;0.88;;;0.40;;
27696;SDS011;15105;56.514;21.002;2022-07-29T12:36:01;2.05;;;0.50;;
27696;SDS011;15105;56.514;21.002;2022-07-29T12:41:06;5.55;;;0.50;;
27696;SDS011;15105;56.514;21.002;2022-07-29T12:43:34;3.00;;;1.05;;
27696;SDS011;15105;56.514;21.002;2022-07-29T12:46:12;0.47;;;0.40;;
27696;SDS011;15105;56.514;21.002;2022-07-29T12:48:41;1.58;;;0.40;;
27696;SDS011;15105;56.514;21.002;2022-07-29T12:51:10;1.40;;;0.30;;
27696;SDS011;15105;56.514;21.002;2022-07-29T12:53:38;1.80;;;0.40;;
27696;SDS011;15105;56.514;21.002;2022-07-29T12:56:06;2.50;;;0.47;;
27696;SDS011;15105;56.514;21.002;2022-07-29T12:59:11;2.15;;;0.40;;
27696;SDS011;15105;56.514;21.002;2022-07-29T13:01:48;1.13;;;0.43;;
27696;SDS011;15105;56.514;21.002;2022-07-29T13:04:31;2.55;;;0.55;;
27696;SDS011;15105;56.514;21.002;2022-07-29T13:07:03;3.50;;;0.50;;
27696;SDS011;15105;56.514;21.002;2022-07-29T13:09:43;3.53;;;0.40;;
27696;SDS011;15105;56.514;21.002;2022-07-29T13:12:18;2.45;;;0.60;;
27696;SDS011;15105;56.514;21.002;2022-07-29T13:14:46;0.35;;;0.30;;
27696;SDS011;15105;56.514;21.002;2022-07-29T13:17:15;0.52;;;0.32;;
27696;SDS011;15105;56.514;21.002;2022-07-29T13:20:07;1.42;;;0.50;;
27696;SDS011;15105;56.514;21.002;2022-07-29T13:22:38;0.47;;;0.30;;
27696;SDS011;15105;56.514;21.002;2022-07-29T13:25:06;1.58;;;0.30;;
27696;SDS011;15105;56.514;21.002;2022-07-29T13:27:34;5.97;;;0.57;;
27696;SDS011;15105;56.514;21.002;2022-07-29T13:30:05;1.15;;;0.40;;
27696;SDS011;15105;56.514;21.002;2022-07-29T13:32:34;10.27;;;1.02;;
27696;SDS011;15105;56.514;21.002;2022-07-29T13:35:03;12.48;;;0.80;;
27696;SDS011;15105;56.514;21.002;2022-07-29T13:37:33;13.50;;;1.50;;
27696;SDS011;15105;56.514;21.002;2022-07-29T13:40:05;20.67;;;1.80;;
27696;SDS011;15105;56.514;21.002;2022-07-29T13:42:34;6.97;;;0.45;;
27696;SDS011;15105;56.514;21.002;2022-07-29T13:45:01;4.03;;;0.32;;
27696;SDS011;15105;56.514;21.002;2022-07-29T13:47:29;16.00;;;0.70;;
27696;SDS011;15105;56.514;21.002;2022-07-29T13:49:58;3.42;;;0.68;;
27696;SDS011;15105;56.514;21.002;2022-07-29T13:52:26;13.82;;;0.73;;
27696;SDS011;15105;56.514;21.002;2022-07-29T13:54:54;4.82;;;0.60;;
27696;SDS011;15105;56.514;21.002;2022-07-29T13:57:21;6.68;;;0.50;;
27696;SDS011;15105;56.514;21.002;2022-07-29T13:59:48;7.90;;;0.47;;
27696;SDS011;15105;56.514;21.002;2022-07-29T14:02:19;4.85;;;0.52;;
27696;SDS011;15105;56.514;21.002;2022-07-29T14:04:51;4.15;;;0.40;;
27696;SDS011;15105;56.514;21.002;2022-07-29T14:07:23;3.15;;;0.73;;
27696;SDS011;15105;56.514;21.002;2022-07-29T14:09:50;0.88;;;0.40;;
27696;SDS011;15105;56.514;21.002;2022-07-29T14:12:18;3.13;;;0.40;;
27696;SDS011;15105;56.514;21.002;2022-07-29T14:14:45;0.65;;;0.30;;
27696;SDS011;15105;56.514;21.002;2022-07-29T14:17:16;1.70;;;0.40;;
27696;SDS011;15105;56.514;21.002;2022-07-29T14:19:42;0.68;;;0.30;;
27696;SDS011;15105;56.514;21.002;2022-07-29T14:22:09;0.60;;;0.40;;
27696;SDS011;15105;56.514;21.002;2022-07-29T14:24:36;1.92;;;0.52;;
27696;SDS011;15105;56.514;21.002;2022-07-29T14:27:04;0.95;;;0.32;;
27696;SDS011;15105;56.514;21.002;2022-07-29T14:29:33;1.55;;;0.50;;
27696;SDS011;15105;56.514;21.002;2022-07-29T14:32:07;1.77;;;0.50;;
27696;SDS011;15105;56.514;21.002;2022-07-29T14:34:37;0.75;;;0.40;;
27696;SDS011;15105;56.514;21.002;2022-07-29T14:37:04;1.02;;;0.30;;
27696;SDS011;15105;56.514;21.002;2022-07-29T14:39:32;1.88;;;0.50;;
27696;SDS011;15105;56.514;21.002;2022-07-29T14:42:08;4.18;;;0.45;;
27696;SDS011;15105;56.514;21.002;2022-07-29T14:44:55;1.27;;;0.38;;
27696;SDS011;15105;56.514;21.002;2022-07-29T14:47:22;1.02;;;0.40;;
27696;SDS011;15105;56.514;21.002;2022-07-29T14:49:49;0.85;;;0.30;;
27696;SDS011;15105;56.514;21.002;2022-07-29T14:52:16;1.98;;;0.57;;
27696;SDS011;15105;56.514;21.002;2022-07-29T14:54:43;3.25;;;0.70;;
27696;SDS011;15105;56.514;21.002;2022-07-29T14:57:10;2.00;;;0.55;;
27696;SDS011;15105;56.514;21.002;2022-07-29T14:59:38;1.52;;;0.50;;
27696;SDS011;15105;56.514;21.002;2022-07-29T15:02:05;2.15;;;0.40;;
27696;SDS011;15105;56.514;21.002;2022-07-29T15:04:32;0.60;;;0.43;;
27696;SDS011;15105;56.514;21.002;2022-07-29T15:06:59;2.92;;;0.60;;
27696;SDS011;15105;56.514;21.002;2022-07-29T15:09:27;1.27;;;0.57;;
27696;SDS011;15105;56.514;21.002;2022-07-29T15:11:54;0.47;;;0.38;;
27696;SDS011;15105;56.514;21.002;2022-07-29T15:14:21;5.57;;;0.93;;
27696;SDS011;15105;56.514;21.002;2022-07-29T15:16:49;3.90;;;0.80;;
27696;SDS011;15105;56.514;21.002;2022-07-29T15:19:18;1.02;;;0.38;;
27696;SDS011;15105;56.514;21.002;2022-07-29T15:21:45;2.58;;;0.63;;
27696;SDS011;15105;56.514;21.002;2022-07-29T15:24:17;3.00;;;0.90;;
27696;SDS011;15105;56.514;21.002;2022-07-29T15:26:45;3.55;;;0.70;;
27696;SDS011;15105;56.514;21.002;2022-07-29T15:29:13;2.60;;;0.50;;
27696;SDS011;15105;56.514;21.002;2022-07-29T15:31:41;4.22;;;0.70;;
27696;SDS011;15105;56.514;21.002;2022-07-29T15:34:09;1.20;;;0.70;;
27696;SDS011;15105;56.514;21.002;2022-07-29T15:36:36;10.60;;;1.00;;
27696;SDS011;15105;56.514;21.002;2022-07-29T15:39:19;1.05;;;0.35;;
27696;SDS011;15105;56.514;21.002;2022-07-29T15:41:47;3.15;;;0.50;;
27696;SDS011;15105;56.514;21.002;2022-07-29T15:44:14;0.35;;;0.30;;
27696;SDS011;15105;56.514;21.002;2022-07-29T15:46:41;2.55;;;0.50;;
27696;SDS011;15105;56.514;21.002;2022-07-29T15:49:28;18.65;;;1.10;;
27696;SDS011;15105;56.514;21.002;2022-07-29T15:52:14;4.82;;;0.50;;
27696;SDS011;15105;56.514;21.002;2022-07-29T15:54:52;3.22;;;0.50;;
27696;SDS011;15105;56.514;21.002;2022-07-29T15:57:20;2.95;;;0.55;;
27696;SDS011;15105;56.514;21.002;2022-07-29T15:59:48;7.95;;;0.60;;
27696;SDS011;15105;56.514;21.002;2022-07-29T16:02:15;1.02;;;0.40;;
27696;SDS011;15105;56.514;21.002;2022-07-29T16:04:43;1.70;;;0.35;;
27696;SDS011;15105;56.514;21.002;2022-07-29T16:07:11;1.65;;;0.40;;
27696;SDS011;15105;56.514;21.002;2022-07-29T16:09:39;1.27;;;0.35;;
27696;SDS011;15105;56.514;21.002;2022-07-29T16:12:06;0.60;;;0.35;;